KIAG/IAG METAR and TAF weather

Enter ICAO airport designator
Station Type Date Time Source
KIAG METAR 2021/05/10 01:53 UTC NOAA

KIAG 100153Z 06003KT 10SM OVC055 06/04 A2988 RMK AO2 SLP125 T00610044


Station Type Date Time Source
KIAG Decoded METAR 2021/05/10 01:53 UTC NOAA

NIAGARA FALLS INTERNATIONAL AIRPORT, NY, United States (KIAG) 43-07N 078-56W 182M
May 09, 2021 - 09:53 PM EDT / 2021.05.10 0153 UTC
Wind: from the ENE (060 degrees) at 3 MPH (3 KT):0
Visibility: 10 mile(s):0
Sky conditions: overcast
Temperature: 43.0 F (6.1 C)
Dew Point: 39.9 F (4.4 C)
Relative Humidity: 88%
Pressure (altimeter): 29.88 in. Hg (1011 hPa)
ob: KIAG 100153Z 06003KT 10SM OVC055 06/04 A2988 RMK AO2 SLP125 T00610044
cycle: 2

Station Type Date Time Source
KIAG TAF 2021/05/10 01:15 UTC NOAA

TAF
AMD KIAG 100113Z 1001/1024 VRB04KT P6SM SCT035 BKN050
FM100400 33006KT P6SM SCT050 BKN100
FM100800 31006KT P6SM FEW100 SCT250
FM101200 28008KT P6SM SCT250
FM101700 27012G18KT P6SM BKN050

Example: see airport list